Portada
METAR-TAF:

METAR-TAF

Aeroports :

Quakertown Airport

Quakertown, Pennsilvània, Estats Units d'Amèrica

latitud: 40-26-06N, longitud: 075-22-54W, altitud: 160 m

Observació

L'informe es va fer fa 33 minuts, a les 15:55 UTC
Vent 5 kt amb direcció variable
Temperatura 24°C
Humitat 69%
Pressió 1024 hPa
Visibilitat: 16.1 km
Cel clar

METAR: KUKT 261555Z AUTO VRB05KT 10SM CLR 24/18 A3023 RMK A01

Hora: 12:28 (16:28 UTC)


TAF: manca

Observacions i pronòstics meteorològics de més de 4000 aeroports (METAR i TAF).

Les estacions disponibles són els punts grocs i vermells al mapa.

Posi el ratolí al punt desitjat per veure el nom de l'estació.

Feu clic per veure les observacions i els pronòstics meteorològics.

Per canviar el mapa: feu clic els botons verds amb una creu de color negre per apropar; al botó verd amb un guió per allunyar la imatge; o en les fletxes verdes per a mapes adjacents.


METAR-TAF: